sensor_id;sensor_type;location;lat;lon;timestamp;temperature;humidity
65419;DHT22;52027;50.658;14.004;2022-08-21T00:02:19;27.39;47.54
65419;DHT22;52027;50.658;14.004;2022-08-21T00:04:45;27.42;47.79
65419;DHT22;52027;50.658;14.004;2022-08-21T00:07:11;27.41;47.52
65419;DHT22;52027;50.658;14.004;2022-08-21T00:09:37;27.39;47.61
65419;DHT22;52027;50.658;14.004;2022-08-21T00:12:04;27.41;47.80
65419;DHT22;52027;50.658;14.004;2022-08-21T00:14:30;27.41;47.79
65419;DHT22;52027;50.658;14.004;2022-08-21T00:16:55;27.39;47.61
65419;DHT22;52027;50.658;14.004;2022-08-21T00:19:21;27.39;47.55
65419;DHT22;52027;50.658;14.004;2022-08-21T00:21:50;27.41;47.77
65419;DHT22;52027;50.658;14.004;2022-08-21T00:24:16;27.38;47.71
65419;DHT22;52027;50.658;14.004;2022-08-21T00:26:41;27.39;47.72
65419;DHT22;52027;50.658;14.004;2022-08-21T00:29:08;27.42;47.62
65419;DHT22;52027;50.658;14.004;2022-08-21T00:31:34;27.38;47.77
65419;DHT22;52027;50.658;14.004;2022-08-21T00:34:00;27.37;47.79
65419;DHT22;52027;50.658;14.004;2022-08-21T00:36:25;27.39;47.60
65419;DHT22;52027;50.658;14.004;2022-08-21T00:38:50;27.39;47.72
65419;DHT22;52027;50.658;14.004;2022-08-21T00:41:16;27.38;47.86
65419;DHT22;52027;50.658;14.004;2022-08-21T00:43:41;27.38;47.72
65419;DHT22;52027;50.658;14.004;2022-08-21T00:46:06;27.39;47.79
65419;DHT22;52027;50.658;14.004;2022-08-21T00:48:33;27.41;47.83
65419;DHT22;52027;50.658;14.004;2022-08-21T00:51:07;27.37;47.68
65419;DHT22;52027;50.658;14.004;2022-08-21T00:53:36;27.38;47.91
65419;DHT22;52027;50.658;14.004;2022-08-21T00:56:04;27.37;47.75
65419;DHT22;52027;50.658;14.004;2022-08-21T00:58:31;27.37;47.87
65419;DHT22;52027;50.658;14.004;2022-08-21T01:00:57;27.38;47.54
65419;DHT22;52027;50.658;14.004;2022-08-21T01:03:24;27.37;47.92
65419;DHT22;52027;50.658;14.004;2022-08-21T01:05:51;27.37;47.47
65419;DHT22;52027;50.658;14.004;2022-08-21T01:08:18;27.35;47.89
65419;DHT22;52027;50.658;14.004;2022-08-21T01:10:45;27.35;47.74
65419;DHT22;52027;50.658;14.004;2022-08-21T01:13:14;27.35;47.76
65419;DHT22;52027;50.658;14.004;2022-08-21T01:15:43;27.35;47.47
65419;DHT22;52027;50.658;14.004;2022-08-21T01:18:11;27.31;47.74
65419;DHT22;52027;50.658;14.004;2022-08-21T01:20:40;27.37;47.58
65419;DHT22;52027;50.658;14.004;2022-08-21T01:23:07;27.37;47.66
65419;DHT22;52027;50.658;14.004;2022-08-21T01:25:32;27.37;47.59
65419;DHT22;52027;50.658;14.004;2022-08-21T01:28:02;27.34;47.62
65419;DHT22;52027;50.658;14.004;2022-08-21T01:30:32;27.34;47.58
65419;DHT22;52027;50.658;14.004;2022-08-21T01:32:58;27.35;47.30
65419;DHT22;52027;50.658;14.004;2022-08-21T01:35:24;27.34;47.52
65419;DHT22;52027;50.658;14.004;2022-08-21T01:37:49;27.34;47.58
65419;DHT22;52027;50.658;14.004;2022-08-21T01:40:15;27.34;47.62
65419;DHT22;52027;50.658;14.004;2022-08-21T01:42:42;27.33;47.59
65419;DHT22;52027;50.658;14.004;2022-08-21T01:45:08;27.31;47.85
65419;DHT22;52027;50.658;14.004;2022-08-21T01:47:34;27.35;47.56
65419;DHT22;52027;50.658;14.004;2022-08-21T01:50:00;27.33;47.85
65419;DHT22;52027;50.658;14.004;2022-08-21T01:52:26;27.34;47.62
65419;DHT22;52027;50.658;14.004;2022-08-21T01:54:52;27.31;47.66
65419;DHT22;52027;50.658;14.004;2022-08-21T01:57:17;27.31;47.47
65419;DHT22;52027;50.658;14.004;2022-08-21T01:59:42;27.31;47.64
65419;DHT22;52027;50.658;14.004;2022-08-21T02:02:08;27.31;47.57
65419;DHT22;52027;50.658;14.004;2022-08-21T02:04:33;27.34;47.43
65419;DHT22;52027;50.658;14.004;2022-08-21T02:06:59;27.34;47.65
65419;DHT22;52027;50.658;14.004;2022-08-21T02:09:25;27.33;47.66
65419;DHT22;52027;50.658;14.004;2022-08-21T02:11:51;27.30;47.52
65419;DHT22;52027;50.658;14.004;2022-08-21T02:14:17;27.30;47.65
65419;DHT22;52027;50.658;14.004;2022-08-21T02:16:43;27.27;47.61
65419;DHT22;52027;50.658;14.004;2022-08-21T02:19:09;27.28;47.52
65419;DHT22;52027;50.658;14.004;2022-08-21T02:21:35;27.30;47.48
65419;DHT22;52027;50.658;14.004;2022-08-21T02:24:01;27.31;47.56
65419;DHT22;52027;50.658;14.004;2022-08-21T02:26:26;27.28;47.56
65419;DHT22;52027;50.658;14.004;2022-08-21T02:28:52;27.28;47.57
65419;DHT22;52027;50.658;14.004;2022-08-21T02:31:17;27.27;47.84
65419;DHT22;52027;50.658;14.004;2022-08-21T02:33:43;27.30;47.75
65419;DHT22;52027;50.658;14.004;2022-08-21T02:36:09;27.28;47.83
65419;DHT22;52027;50.658;14.004;2022-08-21T02:38:35;27.28;47.81
65419;DHT22;52027;50.658;14.004;2022-08-21T02:41:10;27.25;47.54
65419;DHT22;52027;50.658;14.004;2022-08-21T02:43:35;27.28;47.78
65419;DHT22;52027;50.658;14.004;2022-08-21T02:46:02;27.27;47.54
65419;DHT22;52027;50.658;14.004;2022-08-21T02:48:30;27.27;47.66
65419;DHT22;52027;50.658;14.004;2022-08-21T02:51:02;27.25;47.93
65419;DHT22;52027;50.658;14.004;2022-08-21T02:53:29;27.27;47.91
65419;DHT22;52027;50.658;14.004;2022-08-21T02:55:57;27.25;47.97
65419;DHT22;52027;50.658;14.004;2022-08-21T02:58:29;27.28;47.92
65419;DHT22;52027;50.658;14.004;2022-08-21T03:00:55;27.23;47.73
65419;DHT22;52027;50.658;14.004;2022-08-21T03:03:20;27.25;47.76
65419;DHT22;52027;50.658;14.004;2022-08-21T03:05:46;27.23;47.83
65419;DHT22;52027;50.658;14.004;2022-08-21T03:08:13;27.27;47.74
65419;DHT22;52027;50.658;14.004;2022-08-21T03:10:43;27.25;47.78
65419;DHT22;52027;50.658;14.004;2022-08-21T03:13:10;27.25;47.39
65419;DHT22;52027;50.658;14.004;2022-08-21T03:15:35;27.25;47.59
65419;DHT22;52027;50.658;14.004;2022-08-21T03:18:01;27.25;47.87
65419;DHT22;52027;50.658;14.004;2022-08-21T03:20:28;27.23;47.81
65419;DHT22;52027;50.658;14.004;2022-08-21T03:22:54;27.23;47.51
65419;DHT22;52027;50.658;14.004;2022-08-21T03:25:21;27.21;47.71
65419;DHT22;52027;50.658;14.004;2022-08-21T03:27:47;27.21;47.45
65419;DHT22;52027;50.658;14.004;2022-08-21T03:30:16;27.21;47.95
65419;DHT22;52027;50.658;14.004;2022-08-21T03:32:42;27.20;48.02
65419;DHT22;52027;50.658;14.004;2022-08-21T03:35:08;27.20;48.08
65419;DHT22;52027;50.658;14.004;2022-08-21T03:37:34;27.18;47.76
65419;DHT22;52027;50.658;14.004;2022-08-21T03:39:59;27.18;47.91
65419;DHT22;52027;50.658;14.004;2022-08-21T03:42:25;27.18;47.74
65419;DHT22;52027;50.658;14.004;2022-08-21T03:44:50;27.18;47.68
65419;DHT22;52027;50.658;14.004;2022-08-21T03:47:16;27.17;47.95
65419;DHT22;52027;50.658;14.004;2022-08-21T03:49:41;27.17;48.13
65419;DHT22;52027;50.658;14.004;2022-08-21T03:52:07;27.18;48.10
65419;DHT22;52027;50.658;14.004;2022-08-21T03:54:32;27.17;48.02
65419;DHT22;52027;50.658;14.004;2022-08-21T03:56:58;27.17;48.14
65419;DHT22;52027;50.658;14.004;2022-08-21T03:59:23;27.17;47.97
65419;DHT22;52027;50.658;14.004;2022-08-21T04:02:00;27.14;48.07
65419;DHT22;52027;50.658;14.004;2022-08-21T04:04:27;27.14;47.78
65419;DHT22;52027;50.658;14.004;2022-08-21T04:06:53;27.14;48.12
65419;DHT22;52027;50.658;14.004;2022-08-21T04:09:19;27.12;48.04
65419;DHT22;52027;50.658;14.004;2022-08-21T04:11:45;27.12;47.91
65419;DHT22;52027;50.658;14.004;2022-08-21T04:14:11;27.11;47.61
65419;DHT22;52027;50.658;14.004;2022-08-21T04:16:37;27.15;47.99
65419;DHT22;52027;50.658;14.004;2022-08-21T04:19:03;27.14;47.78
65419;DHT22;52027;50.658;14.004;2022-08-21T04:21:29;27.12;47.97
65419;DHT22;52027;50.658;14.004;2022-08-21T04:23:55;27.12;47.88
65419;DHT22;52027;50.658;14.004;2022-08-21T04:26:21;27.11;48.08
65419;DHT22;52027;50.658;14.004;2022-08-21T04:28:46;27.14;47.86
65419;DHT22;52027;50.658;14.004;2022-08-21T04:31:11;27.12;47.82
65419;DHT22;52027;50.658;14.004;2022-08-21T04:33:37;27.11;47.77
65419;DHT22;52027;50.658;14.004;2022-08-21T04:36:03;27.12;47.93
65419;DHT22;52027;50.658;14.004;2022-08-21T04:38:28;27.14;48.07
65419;DHT22;52027;50.658;14.004;2022-08-21T04:40:56;27.12;47.76
65419;DHT22;52027;50.658;14.004;2022-08-21T04:43:21;27.11;47.97
65419;DHT22;52027;50.658;14.004;2022-08-21T04:45:50;27.10;47.61
65419;DHT22;52027;50.658;14.004;2022-08-21T04:48:18;27.11;47.94
65419;DHT22;52027;50.658;14.004;2022-08-21T04:50:52;27.08;47.61
65419;DHT22;52027;50.658;14.004;2022-08-21T04:53:30;27.10;47.82
65419;DHT22;52027;50.658;14.004;2022-08-21T04:55:58;27.07;47.68
65419;DHT22;52027;50.658;14.004;2022-08-21T04:58:26;27.07;47.95
65419;DHT22;52027;50.658;14.004;2022-08-21T05:00:54;27.06;47.65
65419;DHT22;52027;50.658;14.004;2022-08-21T05:03:20;27.07;47.62
65419;DHT22;52027;50.658;14.004;2022-08-21T05:05:46;27.06;47.71
65419;DHT22;52027;50.658;14.004;2022-08-21T05:08:14;27.07;47.60
65419;DHT22;52027;50.658;14.004;2022-08-21T05:10:41;27.04;47.68
65419;DHT22;52027;50.658;14.004;2022-08-21T05:13:07;27.04;47.62
65419;DHT22;52027;50.658;14.004;2022-08-21T05:15:32;27.04;47.63
65419;DHT22;52027;50.658;14.004;2022-08-21T05:17:58;27.03;47.69
65419;DHT22;52027;50.658;14.004;2022-08-21T05:20:23;27.01;47.50
65419;DHT22;52027;50.658;14.004;2022-08-21T05:22:48;27.03;47.78
65419;DHT22;52027;50.658;14.004;2022-08-21T05:25:14;27.04;47.48
65419;DHT22;52027;50.658;14.004;2022-08-21T05:27:39;27.04;47.53
65419;DHT22;52027;50.658;14.004;2022-08-21T05:30:08;27.01;47.43
65419;DHT22;52027;50.658;14.004;2022-08-21T05:32:34;27.01;47.44
65419;DHT22;52027;50.658;14.004;2022-08-21T05:35:00;27.03;47.36
65419;DHT22;52027;50.658;14.004;2022-08-21T05:37:26;27.03;47.71
65419;DHT22;52027;50.658;14.004;2022-08-21T05:39:51;27.01;47.74
65419;DHT22;52027;50.658;14.004;2022-08-21T05:42:16;27.03;47.47
65419;DHT22;52027;50.658;14.004;2022-08-21T05:44:42;27.01;47.56
65419;DHT22;52027;50.658;14.004;2022-08-21T05:47:10;27.01;47.53
65419;DHT22;52027;50.658;14.004;2022-08-21T05:49:36;27.03;47.67
65419;DHT22;52027;50.658;14.004;2022-08-21T05:52:02;27.03;47.33
65419;DHT22;52027;50.658;14.004;2022-08-21T05:54:29;27.03;47.56
65419;DHT22;52027;50.658;14.004;2022-08-21T05:56:54;27.06;47.72
65419;DHT22;52027;50.658;14.004;2022-08-21T05:59:20;27.06;47.70
65419;DHT22;52027;50.658;14.004;2022-08-21T06:01:45;27.01;47.72
65419;DHT22;52027;50.658;14.004;2022-08-21T06:04:11;27.03;47.60
65419;DHT22;52027;50.658;14.004;2022-08-21T06:06:37;27.04;47.81
65419;DHT22;52027;50.658;14.004;2022-08-21T06:09:03;27.03;47.78
65419;DHT22;52027;50.658;14.004;2022-08-21T06:11:29;27.06;47.91
65419;DHT22;52027;50.658;14.004;2022-08-21T06:13:54;27.04;47.76
65419;DHT22;52027;50.658;14.004;2022-08-21T06:16:20;27.03;47.69
65419;DHT22;52027;50.658;14.004;2022-08-21T06:18:45;27.06;47.73
65419;DHT22;52027;50.658;14.004;2022-08-21T06:21:10;27.06;47.73
65419;DHT22;52027;50.658;14.004;2022-08-21T06:23:39;27.06;47.76
65419;DHT22;52027;50.658;14.004;2022-08-21T06:26:05;27.08;47.50
65419;DHT22;52027;50.658;14.004;2022-08-21T06:28:32;27.06;47.29
65419;DHT22;52027;50.658;14.004;2022-08-21T06:30:58;27.07;47.73
65419;DHT22;52027;50.658;14.004;2022-08-21T06:33:23;27.04;47.59
65419;DHT22;52027;50.658;14.004;2022-08-21T06:35:49;27.06;47.72
65419;DHT22;52027;50.658;14.004;2022-08-21T06:38:15;27.07;47.51
65419;DHT22;52027;50.658;14.004;2022-08-21T06:40:40;27.06;47.53
65419;DHT22;52027;50.658;14.004;2022-08-21T06:43:12;27.04;47.42
65419;DHT22;52027;50.658;14.004;2022-08-21T06:45:38;27.04;47.56
65419;DHT22;52027;50.658;14.004;2022-08-21T06:48:04;27.04;47.60
65419;DHT22;52027;50.658;14.004;2022-08-21T06:50:30;27.06;47.42
65419;DHT22;52027;50.658;14.004;2022-08-21T06:53:06;27.04;47.26
65419;DHT22;52027;50.658;14.004;2022-08-21T06:55:32;27.06;47.39
65419;DHT22;52027;50.658;14.004;2022-08-21T06:57:58;27.04;47.59
65419;DHT22;52027;50.658;14.004;2022-08-21T07:00:23;27.03;47.28
65419;DHT22;52027;50.658;14.004;2022-08-21T07:02:49;27.03;47.61
65419;DHT22;52027;50.658;14.004;2022-08-21T07:05:14;27.04;47.59
65419;DHT22;52027;50.658;14.004;2022-08-21T07:07:40;27.04;47.60
65419;DHT22;52027;50.658;14.004;2022-08-21T07:10:05;27.04;47.45
65419;DHT22;52027;50.658;14.004;2022-08-21T07:12:31;27.03;47.59
65419;DHT22;52027;50.658;14.004;2022-08-21T07:14:56;27.06;47.46
65419;DHT22;52027;50.658;14.004;2022-08-21T07:17:22;27.04;47.45
65419;DHT22;52027;50.658;14.004;2022-08-21T07:19:47;27.04;47.36
65419;DHT22;52027;50.658;14.004;2022-08-21T07:22:13;27.03;47.36
65419;DHT22;52027;50.658;14.004;2022-08-21T07:24:40;27.04;47.59
65419;DHT22;52027;50.658;14.004;2022-08-21T07:27:06;27.04;47.67
65419;DHT22;52027;50.658;14.004;2022-08-21T07:29:31;27.04;47.87
65419;DHT22;52027;50.658;14.004;2022-08-21T07:31:56;27.07;47.76
65419;DHT22;52027;50.658;14.004;2022-08-21T07:34:22;27.06;47.72
65419;DHT22;52027;50.658;14.004;2022-08-21T07:36:47;27.06;47.79
65419;DHT22;52027;50.658;14.004;2022-08-21T07:39:12;27.07;47.87
65419;DHT22;52027;50.658;14.004;2022-08-21T07:41:38;27.06;47.85
65419;DHT22;52027;50.658;14.004;2022-08-21T07:44:03;27.08;47.81
65419;DHT22;52027;50.658;14.004;2022-08-21T07:46:29;27.08;47.66
65419;DHT22;52027;50.658;14.004;2022-08-21T07:48:54;27.07;47.79
65419;DHT22;52027;50.658;14.004;2022-08-21T07:51:22;27.07;47.73
65419;DHT22;52027;50.658;14.004;2022-08-21T07:53:53;27.06;47.73
65419;DHT22;52027;50.658;14.004;2022-08-21T07:56:19;27.07;47.64
65419;DHT22;52027;50.658;14.004;2022-08-21T07:58:45;27.06;47.65
65419;DHT22;52027;50.658;14.004;2022-08-21T08:01:10;27.07;47.65
65419;DHT22;52027;50.658;14.004;2022-08-21T08:03:36;27.06;47.57
65419;DHT22;52027;50.658;14.004;2022-08-21T08:06:01;27.07;47.54
65419;DHT22;52027;50.658;14.004;2022-08-21T08:08:29;27.10;47.68
65419;DHT22;52027;50.658;14.004;2022-08-21T08:10:56;27.07;47.68
65419;DHT22;52027;50.658;14.004;2022-08-21T08:13:22;27.06;47.58
65419;DHT22;52027;50.658;14.004;2022-08-21T08:15:47;27.07;47.65
65419;DHT22;52027;50.658;14.004;2022-08-21T08:18:13;27.10;47.48
65419;DHT22;52027;50.658;14.004;2022-08-21T08:20:39;27.11;47.84
65419;DHT22;52027;50.658;14.004;2022-08-21T08:23:04;27.08;47.77
65419;DHT22;52027;50.658;14.004;2022-08-21T08:25:29;27.10;47.80
65419;DHT22;52027;50.658;14.004;2022-08-21T08:27:55;27.08;47.78
65419;DHT22;52027;50.658;14.004;2022-08-21T08:30:21;27.10;47.70
65419;DHT22;52027;50.658;14.004;2022-08-21T08:32:47;27.11;47.79
65419;DHT22;52027;50.658;14.004;2022-08-21T08:35:13;27.10;47.78
65419;DHT22;52027;50.658;14.004;2022-08-21T08:37:39;27.10;47.68
65419;DHT22;52027;50.658;14.004;2022-08-21T08:40:10;27.11;47.74
65419;DHT22;52027;50.658;14.004;2022-08-21T08:42:36;27.10;47.72
65419;DHT22;52027;50.658;14.004;2022-08-21T08:45:06;27.10;47.65
65419;DHT22;52027;50.658;14.004;2022-08-21T08:47:37;27.11;47.72
65419;DHT22;52027;50.658;14.004;2022-08-21T08:50:37;27.11;47.70
65419;DHT22;52027;50.658;14.004;2022-08-21T08:52:59;27.11;47.71
65419;DHT22;52027;50.658;14.004;2022-08-21T08:55:38;27.11;47.69
65419;DHT22;52027;50.658;14.004;2022-08-21T08:58:04;27.11;47.63
65419;DHT22;52027;50.658;14.004;2022-08-21T09:00:31;27.10;47.70
65419;DHT22;52027;50.658;14.004;2022-08-21T09:02:58;27.12;47.66
65419;DHT22;52027;50.658;14.004;2022-08-21T09:05:28;27.11;47.73
65419;DHT22;52027;50.658;14.004;2022-08-21T09:08:15;27.12;47.74
65419;DHT22;52027;50.658;14.004;2022-08-21T09:10:58;27.12;47.67
65419;DHT22;52027;50.658;14.004;2022-08-21T09:16:16;27.11;47.70
65419;DHT22;52027;50.658;14.004;2022-08-21T09:18:54;27.11;47.74
65419;DHT22;52027;50.658;14.004;2022-08-21T09:21:40;27.12;47.74
65419;DHT22;52027;50.658;14.004;2022-08-21T09:26:51;27.10;47.67
65419;DHT22;52027;50.658;14.004;2022-08-21T09:29:22;27.12;47.67
65419;DHT22;52027;50.658;14.004;2022-08-21T09:31:49;27.12;47.69
65419;DHT22;52027;50.658;14.004;2022-08-21T09:34:25;27.14;47.56
65419;DHT22;52027;50.658;14.004;2022-08-21T09:36:51;27.12;47.62
65419;DHT22;52027;50.658;14.004;2022-08-21T09:39:32;27.14;47.56
65419;DHT22;52027;50.658;14.004;2022-08-21T09:42:05;27.14;47.55
65419;DHT22;52027;50.658;14.004;2022-08-21T09:44:33;27.15;47.50
65419;DHT22;52027;50.658;14.004;2022-08-21T09:46:59;27.14;47.52
65419;DHT22;52027;50.658;14.004;2022-08-21T09:49:30;27.15;47.51
65419;DHT22;52027;50.658;14.004;2022-08-21T09:51:57;27.17;47.56
65419;DHT22;52027;50.658;14.004;2022-08-21T09:54:30;27.14;47.46
65419;DHT22;52027;50.658;14.004;2022-08-21T09:56:59;27.17;47.48
65419;DHT22;52027;50.658;14.004;2022-08-21T09:59:43;27.14;47.43
65419;DHT22;52027;50.658;14.004;2022-08-21T10:02:31;27.15;47.39
65419;DHT22;52027;50.658;14.004;2022-08-21T10:07:30;27.18;47.32
65419;DHT22;52027;50.658;14.004;2022-08-21T10:13:19;27.18;47.29
65419;DHT22;52027;50.658;14.004;2022-08-21T10:29:21;27.23;47.11
65419;DHT22;52027;50.658;14.004;2022-08-21T10:40:33;27.25;47.03
65419;DHT22;52027;50.658;14.004;2022-08-21T10:48:34;27.31;46.59
65419;DHT22;52027;50.658;14.004;2022-08-21T10:51:20;27.30;46.41
65419;DHT22;52027;50.658;14.004;2022-08-21T10:53:59;27.33;46.44
65419;DHT22;52027;50.658;14.004;2022-08-21T10:56:32;27.34;46.43
65419;DHT22;52027;50.658;14.004;2022-08-21T11:01:48;27.34;46.18
65419;DHT22;52027;50.658;14.004;2022-08-21T11:04:25;27.39;46.22
65419;DHT22;52027;50.658;14.004;2022-08-21T11:06:59;27.39;46.27
65419;DHT22;52027;50.658;14.004;2022-08-21T11:09:26;27.39;45.99
65419;DHT22;52027;50.658;14.004;2022-08-21T11:12:23;27.42;46.07
65419;DHT22;52027;50.658;14.004;2022-08-21T11:18:24;27.41;45.64
65419;DHT22;52027;50.658;14.004;2022-08-21T11:23:46;27.48;45.84
65419;DHT22;52027;50.658;14.004;2022-08-21T11:26:18;27.51;45.88
65419;DHT22;52027;50.658;14.004;2022-08-21T11:29:00;27.54;45.92
65419;DHT22;52027;50.658;14.004;2022-08-21T11:34:41;27.58;45.75
65419;DHT22;52027;50.658;14.004;2022-08-21T11:37:40;27.59;45.67
65419;DHT22;52027;50.658;14.004;2022-08-21T11:45:55;27.66;45.33
65419;DHT22;52027;50.658;14.004;2022-08-21T11:50:47;27.69;44.77
65419;DHT22;52027;50.658;14.004;2022-08-21T11:53:15;27.73;44.79
65419;DHT22;52027;50.658;14.004;2022-08-21T11:55:50;27.76;44.88
65419;DHT22;52027;50.658;14.004;2022-08-21T12:00:47;27.79;44.35
65419;DHT22;52027;50.658;14.004;2022-08-21T12:03:25;27.80;44.40
65419;DHT22;52027;50.658;14.004;2022-08-21T12:05:54;27.82;44.27
65419;DHT22;52027;50.658;14.004;2022-08-21T12:08:41;27.86;44.32
65419;DHT22;52027;50.658;14.004;2022-08-21T12:22:12;27.96;43.69
65419;DHT22;52027;50.658;14.004;2022-08-21T12:24:44;28.00;43.55
65419;DHT22;52027;50.658;14.004;2022-08-21T12:29:50;28.04;43.29
65419;DHT22;52027;50.658;14.004;2022-08-21T12:35:14;28.09;43.54
65419;DHT22;52027;50.658;14.004;2022-08-21T12:37:46;28.13;43.54
65419;DHT22;52027;50.658;14.004;2022-08-21T12:43:19;28.16;43.41
65419;DHT22;52027;50.658;14.004;2022-08-21T12:45:48;28.18;43.47
65419;DHT22;52027;50.658;14.004;2022-08-21T12:50:51;28.24;43.18
65419;DHT22;52027;50.658;14.004;2022-08-21T12:53:28;28.24;43.30
65419;DHT22;52027;50.658;14.004;2022-08-21T12:55:55;28.25;43.44
65419;DHT22;52027;50.658;14.004;2022-08-21T12:58:26;28.27;43.25
65419;DHT22;52027;50.658;14.004;2022-08-21T13:01:02;28.27;43.17
65419;DHT22;52027;50.658;14.004;2022-08-21T13:03:28;28.30;43.01
65419;DHT22;52027;50.658;14.004;2022-08-21T13:05:54;28.30;42.88
65419;DHT22;52027;50.658;14.004;2022-08-21T13:08:21;28.33;42.78
65419;DHT22;52027;50.658;14.004;2022-08-21T13:10:55;28.36;42.60
65419;DHT22;52027;50.658;14.004;2022-08-21T13:13:23;28.36;42.42
65419;DHT22;52027;50.658;14.004;2022-08-21T13:15:49;28.36;42.42
65419;DHT22;52027;50.658;14.004;2022-08-21T13:18:23;28.38;42.38
65419;DHT22;52027;50.658;14.004;2022-08-21T13:20:50;28.38;42.20
65419;DHT22;52027;50.658;14.004;2022-08-21T13:23:29;28.38;42.05
65419;DHT22;52027;50.658;14.004;2022-08-21T13:25:55;28.41;42.09
65419;DHT22;52027;50.658;14.004;2022-08-21T13:28:21;28.43;42.06
65419;DHT22;52027;50.658;14.004;2022-08-21T13:30:53;28.43;42.08
65419;DHT22;52027;50.658;14.004;2022-08-21T13:33:22;28.45;42.20
65419;DHT22;52027;50.658;14.004;2022-08-21T13:38:50;28.48;41.91
65419;DHT22;52027;50.658;14.004;2022-08-21T13:41:31;28.52;41.98
65419;DHT22;52027;50.658;14.004;2022-08-21T13:46:43;28.52;42.10
65419;DHT22;52027;50.658;14.004;2022-08-21T13:49:10;28.55;42.19
65419;DHT22;52027;50.658;14.004;2022-08-21T13:51:37;28.54;42.27
65419;DHT22;52027;50.658;14.004;2022-08-21T13:54:23;28.58;42.30
65419;DHT22;52027;50.658;14.004;2022-08-21T13:56:49;28.59;42.09
65419;DHT22;52027;50.658;14.004;2022-08-21T13:59:37;28.58;42.16
65419;DHT22;52027;50.658;14.004;2022-08-21T14:02:13;28.58;41.90
65419;DHT22;52027;50.658;14.004;2022-08-21T14:05:02;28.58;41.74
65419;DHT22;52027;50.658;14.004;2022-08-21T14:07:35;28.61;41.47
65419;DHT22;52027;50.658;14.004;2022-08-21T14:10:21;28.64;41.31
65419;DHT22;52027;50.658;14.004;2022-08-21T14:12:51;28.66;41.09
65419;DHT22;52027;50.658;14.004;2022-08-21T14:15:20;28.68;40.87
65419;DHT22;52027;50.658;14.004;2022-08-21T14:17:48;28.68;40.81
65419;DHT22;52027;50.658;14.004;2022-08-21T14:20:32;28.69;40.71
65419;DHT22;52027;50.658;14.004;2022-08-21T14:22:58;28.71;40.77
65419;DHT22;52027;50.658;14.004;2022-08-21T14:27:57;28.74;40.74
65419;DHT22;52027;50.658;14.004;2022-08-21T14:32:49;28.72;41.04
65419;DHT22;52027;50.658;14.004;2022-08-21T14:35:15;28.72;41.06
65419;DHT22;52027;50.658;14.004;2022-08-21T14:37:44;28.74;41.01
65419;DHT22;52027;50.658;14.004;2022-08-21T14:40:12;28.75;41.00
65419;DHT22;52027;50.658;14.004;2022-08-21T14:42:40;28.75;40.93
65419;DHT22;52027;50.658;14.004;2022-08-21T14:45:13;28.76;40.73
65419;DHT22;52027;50.658;14.004;2022-08-21T14:47:39;28.76;40.48
65419;DHT22;52027;50.658;14.004;2022-08-21T14:50:05;28.79;40.47
65419;DHT22;52027;50.658;14.004;2022-08-21T14:52:30;28.79;40.29
65419;DHT22;52027;50.658;14.004;2022-08-21T14:54:56;28.80;40.14
65419;DHT22;52027;50.658;14.004;2022-08-21T14:57:22;28.80;40.02
65419;DHT22;52027;50.658;14.004;2022-08-21T14:59:48;28.80;39.77
65419;DHT22;52027;50.658;14.004;2022-08-21T15:02:14;28.83;39.94
65419;DHT22;52027;50.658;14.004;2022-08-21T15:04:39;28.82;40.00
65419;DHT22;52027;50.658;14.004;2022-08-21T15:07:05;28.83;40.11
65419;DHT22;52027;50.658;14.004;2022-08-21T15:09:30;28.83;40.31
65419;DHT22;52027;50.658;14.004;2022-08-21T15:11:58;28.83;40.48
65419;DHT22;52027;50.658;14.004;2022-08-21T15:14:27;28.83;40.62
65419;DHT22;52027;50.658;14.004;2022-08-21T15:16:53;28.85;40.61
65419;DHT22;52027;50.658;14.004;2022-08-21T15:19:19;28.88;40.52
65419;DHT22;52027;50.658;14.004;2022-08-21T15:21:44;28.86;40.51
65419;DHT22;52027;50.658;14.004;2022-08-21T15:24:09;28.83;40.45
65419;DHT22;52027;50.658;14.004;2022-08-21T15:26:35;28.85;40.27
65419;DHT22;52027;50.658;14.004;2022-08-21T15:29:01;28.85;40.17
65419;DHT22;52027;50.658;14.004;2022-08-21T15:31:27;28.85;40.00
65419;DHT22;52027;50.658;14.004;2022-08-21T15:33:53;28.83;40.00
65419;DHT22;52027;50.658;14.004;2022-08-21T15:36:19;28.86;39.90
65419;DHT22;52027;50.658;14.004;2022-08-21T15:38:44;28.85;39.99
65419;DHT22;52027;50.658;14.004;2022-08-21T15:41:10;28.86;40.03
65419;DHT22;52027;50.658;14.004;2022-08-21T15:43:46;28.86;40.25
65419;DHT22;52027;50.658;14.004;2022-08-21T15:46:14;28.88;40.42
65419;DHT22;52027;50.658;14.004;2022-08-21T15:48:41;28.85;40.44
65419;DHT22;52027;50.658;14.004;2022-08-21T15:51:06;28.88;40.40
65419;DHT22;52027;50.658;14.004;2022-08-21T15:53:32;28.85;40.44
65419;DHT22;52027;50.658;14.004;2022-08-21T15:56:02;28.88;40.39
65419;DHT22;52027;50.658;14.004;2022-08-21T15:58:27;28.88;40.25
65419;DHT22;52027;50.658;14.004;2022-08-21T16:00:53;28.89;40.15
65419;DHT22;52027;50.658;14.004;2022-08-21T16:03:19;28.91;39.96
65419;DHT22;52027;50.658;14.004;2022-08-21T16:05:47;28.89;39.92
65419;DHT22;52027;50.658;14.004;2022-08-21T16:08:18;28.89;39.86
65419;DHT22;52027;50.658;14.004;2022-08-21T16:10:43;28.89;39.86
65419;DHT22;52027;50.658;14.004;2022-08-21T16:13:18;28.91;39.93
65419;DHT22;52027;50.658;14.004;2022-08-21T16:15:43;28.91;39.97
65419;DHT22;52027;50.658;14.004;2022-08-21T16:18:09;28.88;40.04
65419;DHT22;52027;50.658;14.004;2022-08-21T16:20:35;28.86;40.13
65419;DHT22;52027;50.658;14.004;2022-08-21T16:23:00;28.88;40.19
65419;DHT22;52027;50.658;14.004;2022-08-21T16:25:25;28.83;40.31
65419;DHT22;52027;50.658;14.004;2022-08-21T16:27:57;28.85;40.27
65419;DHT22;52027;50.658;14.004;2022-08-21T16:30:23;28.83;40.20
65419;DHT22;52027;50.658;14.004;2022-08-21T16:32:49;28.80;40.28
65419;DHT22;52027;50.658;14.004;2022-08-21T16:35:17;28.79;40.25
65419;DHT22;52027;50.658;14.004;2022-08-21T16:37:44;28.80;40.17
65419;DHT22;52027;50.658;14.004;2022-08-21T16:40:10;28.76;40.13
65419;DHT22;52027;50.658;14.004;2022-08-21T16:42:37;28.75;40.12
65419;DHT22;52027;50.658;14.004;2022-08-21T16:45:17;28.74;40.12
65419;DHT22;52027;50.658;14.004;2022-08-21T16:47:42;28.74;40.18
65419;DHT22;52027;50.658;14.004;2022-08-21T16:50:10;28.74;40.12
65419;DHT22;52027;50.658;14.004;2022-08-21T16:52:37;28.71;40.06
65419;DHT22;52027;50.658;14.004;2022-08-21T16:55:03;28.69;40.03
65419;DHT22;52027;50.658;14.004;2022-08-21T16:57:29;28.68;40.03